Edmonds, Washington
Current Conditions -  °F | °C
As of 11:05 PM on Saturday 20 Dec 2014 (Local Time) from KPAE Reporting Station
Broken Clouds Broken Clouds  
Wind Chill: 53°   Ceiling: 9500
Heat Index: 53°   Visibility: 10mi
Dew Point: 49°   Wind: 15mph
Humidity: 86%   Direction: 210°SSW
Pressure: 29.49"   Gusts: NA
Location:  47.81°N, 122.37°W
Report Text: KPAE 210705Z AUTO 21013KT 10SM SCT014 SCT080 BKN095 12/09 A2949 RMK AO2 PRESRR T01170094
Loading
Personal Weather Stations






























Interactive Weather Map New forecast layout! Learn more

10-Day Weather Forecast

Advertisements
Track Severe Weather on mobile